Time;durP1;ratioP1;P1;durP2;ratioP2;P2;SDS_P1;SDS_P2;PMS_P1;PMS_P2;Temp;Humidity;BMP_temperature;BMP_pressure;BME280_temperature;BME280_humidity;BME280_pressure;Samples;Min_cycle;Max_cycle;Signal;HPM_P1;HPM_P2
2022/09/22 00:01:10;;;;;;;69.13;50.85;;;19.00;62.60;;;;;;4960858;28;95139;-57
2022/09/22 00:03:38;;;;;;;69.25;51.05;;;19.00;62.60;;;;;;4957640;28;96231;-58
2022/09/22 00:06:14;;;;;;;68.22;50.40;;;19.10;62.50;;;;;;4965317;28;96178;-58
2022/09/22 00:08:42;;;;;;;68.38;50.45;;;19.00;62.50;;;;;;4969521;27;95285;-57
2022/09/22 00:11:20;;;;;;;69.63;50.95;;;19.00;62.60;;;;;;4959956;28;95365;-58
2022/09/22 00:13:52;;;;;;;68.95;50.95;;;19.00;62.50;;;;;;4960578;28;95798;-58
2022/09/22 00:16:21;;;;;;;;;;;19.00;62.60;;;;;;4962257;28;96449;-56
2022/09/22 00:18:47;;;;;;;68.75;50.63;;;19.00;62.50;;;;;;4962261;28;101524;-58
2022/09/22 00:21:15;;;;;;;69.05;50.58;;;19.00;62.60;;;;;;4964897;28;96098;-56
2022/09/22 00:23:42;;;;;;;71.30;50.95;;;19.00;62.60;;;;;;4963692;28;102020;-58
2022/09/22 00:26:11;;;;;;;69.03;50.65;;;19.00;62.50;;;;;;4968276;28;95016;-56
2022/09/22 00:28:37;;;;;;;68.22;50.75;;;18.90;62.40;;;;;;4962206;28;94901;-58
2022/09/22 00:31:08;;;;;;;68.38;50.50;;;18.90;62.70;;;;;;4962825;28;98503;-58
2022/09/22 00:33:36;;;;;;;68.72;50.47;;;18.90;62.70;;;;;;4954373;28;94998;-57
2022/09/22 00:36:03;;;;;;;68.80;50.97;;;18.90;62.90;;;;;;4957958;28;94776;-58
2022/09/22 00:38:29;;;;;;;70.25;50.42;;;18.90;62.80;;;;;;4966651;28;95237;-58
2022/09/22 00:40:54;;;;;;;69.20;50.70;;;18.90;62.70;;;;;;4966999;28;97306;-58
2022/09/22 00:43:24;;;;;;;69.47;50.60;;;18.90;62.60;;;;;;4958162;28;97284;-57
2022/09/22 00:46:22;;;;;;;69.03;50.67;;;18.80;62.70;;;;;;4973585;28;95343;-57
2022/09/22 00:48:54;;;;;;;69.43;50.80;;;18.80;62.70;;;;;;4956011;28;96117;-57
2022/09/22 00:51:23;;;;;;;68.05;50.63;;;18.80;62.80;;;;;;4968267;28;95713;-57
2022/09/22 00:53:49;;;;;;;71.35;50.20;;;18.80;63.70;;;;;;4965351;28;95213;-57
2022/09/22 00:56:20;;;;;;;67.45;50.17;;;18.80;62.70;;;;;;4957337;28;96157;-58
2022/09/22 00:58:56;;;;;;;68.23;50.30;;;18.80;62.70;;;;;;4957532;28;96658;-58
2022/09/22 01:01:22;;;;;;;70.03;50.33;;;18.80;62.80;;;;;;4954529;28;95105;-58
2022/09/22 01:03:48;;;;;;;69.13;50.63;;;18.70;62.60;;;;;;4960563;28;95974;-58
2022/09/22 01:06:19;;;;;;;68.72;50.47;;;18.70;62.80;;;;;;4953732;28;95260;-58
2022/09/22 01:08:45;;;;;;;68.45;50.40;;;18.80;63.00;;;;;;4962665;28;97403;-58
2022/09/22 01:11:13;;;;;;;68.18;50.50;;;18.80;62.50;;;;;;4961385;28;100546;-56
2022/09/22 01:13:57;;;;;;;69.35;50.47;;;18.80;62.70;;;;;;4959198;28;98557;-56
2022/09/22 01:16:51;;;;;;;67.07;50.15;;;18.70;62.60;;;;;;4971553;28;97760;-58
2022/09/22 01:19:22;;;;;;;67.40;50.05;;;18.70;62.70;;;;;;4961748;28;95225;-57
2022/09/22 01:21:48;;;;;;;68.07;50.47;;;18.70;62.80;;;;;;4962613;28;99243;-57
2022/09/22 01:24:29;;;;;;;68.78;50.55;;;18.70;62.70;;;;;;4954773;28;95506;-56
2022/09/22 01:27:11;;;;;;;;;;;18.70;62.50;;;;;;4959766;28;94233;-57
2022/09/22 01:29:56;;;;;;;;;;;18.70;62.50;;;;;;4960893;28;95367;-58
2022/09/22 01:32:30;;;;;;;67.35;49.95;;;18.70;62.50;;;;;;4956320;28;96549;-58
2022/09/22 01:34:59;;;;;;;67.40;50.08;;;18.70;62.60;;;;;;4963741;28;101400;-58
2022/09/22 01:37:29;;;;;;;67.78;50.28;;;18.60;62.60;;;;;;4959347;28;95036;-57
2022/09/22 01:40:04;;;;;;;68.50;50.45;;;18.60;62.50;;;;;;4949556;28;95438;-58
2022/09/22 01:42:43;;;;;;;66.93;50.28;;;18.60;62.40;;;;;;4962369;28;96485;-58
2022/09/22 01:45:29;;;;;;;69.22;50.67;;;18.60;62.60;;;;;;4960232;28;94880;-58
2022/09/22 01:48:08;;;;;;;67.60;50.38;;;18.60;62.50;;;;;;4969357;28;95752;-59
2022/09/22 01:51:17;;;;;;;68.57;50.78;;;18.60;62.50;;;;;;4954416;28;95219;-58
2022/09/22 01:53:49;;;;;;;68.50;50.55;;;18.60;62.50;;;;;;4958436;28;97060;-58
2022/09/22 01:56:19;;;;;;;67.75;50.45;;;18.60;62.40;;;;;;4964972;28;95445;-56
2022/09/22 01:58:56;;;;;;;68.30;50.05;;;18.60;62.60;;;;;;4967425;28;97231;-57
2022/09/22 02:01:36;;;;;;;68.03;50.25;;;18.60;62.50;;;;;;4966565;28;96712;-58
2022/09/22 02:04:24;;;;;;;67.70;50.20;;;18.60;62.60;;;;;;4964527;28;96629;-59
2022/09/22 02:06:57;;;;;;;67.68;50.15;;;18.50;62.40;;;;;;4969584;28;95327;-58
2022/09/22 02:09:25;;;;;;;68.28;50.17;;;18.50;62.40;;;;;;4962668;28;97386;-57
2022/09/22 02:11:51;;;;;;;69.57;50.45;;;18.50;62.30;;;;;;4965599;28;97025;-58
2022/09/22 02:14:17;;;;;;;67.80;50.05;;;18.50;62.30;;;;;;4964094;28;95739;-58
2022/09/22 02:16:43;;;;;;;68.30;50.05;;;18.50;62.40;;;;;;4958467;28;96327;-58
2022/09/22 02:19:23;;;;;;;67.93;50.47;;;18.50;62.40;;;;;;4955219;28;95619;-58
2022/09/22 02:21:49;;;;;;;67.25;50.17;;;18.50;62.40;;;;;;4964761;28;95721;-58
2022/09/22 02:24:34;;;;;;;67.32;50.25;;;18.50;62.30;;;;;;4952501;28;96468;-58
2022/09/22 02:27:08;;;;;;;67.38;49.85;;;18.50;62.40;;;;;;4967217;28;96029;-57
2022/09/22 02:29:40;;;;;;;67.57;49.88;;;18.50;62.30;;;;;;4957202;28;96840;-56
2022/09/22 02:32:10;;;;;;;66.75;50.03;;;18.50;62.50;;;;;;4955465;28;96143;-57
2022/09/22 02:34:36;;;;;;;66.35;49.67;;;18.50;62.30;;;;;;4959551;28;96507;-57
2022/09/22 02:37:26;;;;;;;66.97;50.08;;;18.50;62.30;;;;;;4959873;28;96654;-57
2022/09/22 02:40:07;;;;;;;68.45;50.03;;;18.50;62.10;;;;;;4968198;28;96699;-58
2022/09/22 02:43:09;;;;;;;66.82;49.85;;;18.40;62.30;;;;;;4957019;28;96561;-58
2022/09/22 02:46:12;;;;;;;67.28;50.10;;;18.40;62.20;;;;;;4964730;28;95095;-57
2022/09/22 02:48:50;;;;;;;68.10;49.90;;;18.40;62.10;;;;;;4952066;28;95374;-58
2022/09/22 02:51:17;;;;;;;66.78;49.97;;;18.50;62.10;;;;;;4955385;28;95308;-57
2022/09/22 02:53:43;;;;;;;68.22;50.75;;;18.40;62.00;;;;;;4958617;28;96317;-59
2022/09/22 02:56:09;;;;;;;68.18;49.97;;;18.40;62.10;;;;;;4958702;28;97183;-58
2022/09/22 02:58:35;;;;;;;66.63;50.08;;;18.40;62.00;;;;;;4952584;28;95904;-58
2022/09/22 03:01:01;;;;;;;67.57;50.30;;;18.40;62.00;;;;;;4950392;28;95373;-57
2022/09/22 03:03:27;;;;;;;67.60;49.92;;;18.40;61.90;;;;;;4964849;28;95235;-58
2022/09/22 03:05:53;;;;;;;66.82;49.83;;;18.40;62.00;;;;;;4953729;28;95098;-56
2022/09/22 03:08:18;;;;;;;67.38;50.03;;;18.40;62.10;;;;;;4961851;28;96986;-58
2022/09/22 03:10:44;;;;;;;68.20;50.13;;;18.40;61.90;;;;;;4960064;28;97263;-58
2022/09/22 03:13:10;;;;;;;66.68;49.83;;;18.40;61.90;;;;;;4965205;28;95466;-58
2022/09/22 03:15:36;;;;;;;66.90;50.08;;;18.40;62.00;;;;;;4963210;28;97698;-57
2022/09/22 03:18:01;;;;;;;66.57;50.05;;;18.40;61.80;;;;;;4955091;28;106392;-58
2022/09/22 03:20:27;;;;;;;66.63;49.85;;;18.40;61.70;;;;;;4963673;28;95407;-58
2022/09/22 03:22:53;;;;;;;68.20;50.22;;;18.40;61.90;;;;;;4955789;28;95276;-58
2022/09/22 03:25:19;;;;;;;67.93;49.65;;;18.40;61.80;;;;;;4964811;28;96551;-56
2022/09/22 03:27:44;;;;;;;67.60;50.38;;;18.30;61.90;;;;;;4960816;28;97320;-58
2022/09/22 03:30:11;;;;;;;67.40;49.70;;;18.30;61.80;;;;;;4962272;28;95333;-57
2022/09/22 03:32:37;;;;;;;67.38;49.97;;;18.30;61.80;;;;;;4957206;28;95295;-58
2022/09/22 03:35:03;;;;;;;67.20;49.80;;;18.30;61.90;;;;;;4966565;28;97267;-58
2022/09/22 03:37:28;;;;;;;68.18;49.88;;;18.30;62.00;;;;;;4957816;28;95109;-57
2022/09/22 03:39:54;;;;;;;66.55;49.88;;;18.30;61.90;;;;;;4967092;28;96051;-58
2022/09/22 03:42:20;;;;;;;66.45;49.88;;;18.30;61.90;;;;;;4962180;28;101271;-58
2022/09/22 03:44:45;;;;;;;66.30;49.65;;;18.30;61.90;;;;;;4961764;28;97308;-56
2022/09/22 03:47:11;;;;;;;66.80;49.75;;;18.30;61.90;;;;;;4966548;28;97388;-56
2022/09/22 03:49:37;;;;;;;67.20;49.90;;;18.30;61.60;;;;;;4957425;28;95050;-56
2022/09/22 03:52:03;;;;;;;66.18;49.55;;;18.30;61.70;;;;;;4956861;28;98152;-57
2022/09/22 03:54:29;;;;;;;67.90;49.85;;;18.30;61.80;;;;;;4963242;28;96614;-57
2022/09/22 03:56:54;;;;;;;67.55;49.80;;;18.30;61.80;;;;;;4967428;28;96294;-57
2022/09/22 03:59:20;;;;;;;66.65;50.15;;;18.20;61.80;;;;;;4962926;28;93931;-57
2022/09/22 04:01:46;;;;;;;66.63;50.13;;;18.30;62.00;;;;;;4962143;28;96258;-57
2022/09/22 04:04:12;;;;;;;67.85;50.00;;;18.30;61.70;;;;;;4965204;28;100993;-56
2022/09/22 04:06:37;;;;;;;67.00;49.72;;;18.30;61.80;;;;;;4968517;28;95905;-57
2022/09/22 04:09:04;;;;;;;67.15;49.95;;;18.30;61.70;;;;;;4965926;28;96345;-57
2022/09/22 04:11:30;;;;;;;66.70;50.25;;;18.30;61.50;;;;;;4957337;28;96293;-58
2022/09/22 04:13:56;;;;;;;67.50;49.75;;;18.30;61.60;;;;;;4965500;28;95327;-56
2022/09/22 04:16:22;;;;;;;66.25;49.85;;;18.30;61.80;;;;;;4961245;28;95564;-57
2022/09/22 04:18:48;;;;;;;66.60;49.63;;;18.30;61.50;;;;;;4961725;28;100147;-58
2022/09/22 04:21:13;;;;;;;66.43;49.55;;;18.20;61.70;;;;;;4961382;28;96836;-57
2022/09/22 04:23:39;;;;;;;66.25;49.65;;;18.20;61.60;;;;;;4959387;28;94361;-57
2022/09/22 04:26:05;;;;;;;67.95;50.25;;;18.20;61.70;;;;;;4962059;28;95250;-57
2022/09/22 04:28:31;;;;;;;67.18;50.05;;;18.20;61.80;;;;;;4966376;28;97970;-62
2022/09/22 04:30:57;;;;;;;66.57;49.78;;;18.20;61.60;;;;;;4968629;28;96412;-61
2022/09/22 04:33:23;;;;;;;66.82;49.92;;;18.20;61.80;;;;;;4957691;28;97114;-62
2022/09/22 04:35:49;;;;;;;66.80;49.95;;;18.10;61.70;;;;;;4961347;28;95670;-62
2022/09/22 04:38:15;;;;;;;67.10;50.10;;;18.10;61.80;;;;;;4966120;28;95275;-62
2022/09/22 04:40:41;;;;;;;66.65;50.05;;;18.10;61.90;;;;;;4963176;28;95195;-60
2022/09/22 04:43:07;;;;;;;66.90;50.22;;;18.10;61.70;;;;;;4970684;28;95373;-60
2022/09/22 04:45:32;;;;;;;66.63;49.95;;;18.20;61.70;;;;;;4963441;28;94369;-61
2022/09/22 04:47:58;;;;;;;66.32;50.58;;;18.20;61.30;;;;;;4962077;28;94225;-61
2022/09/22 04:50:24;;;;;;;66.18;49.78;;;18.20;61.40;;;;;;4964847;28;95227;-61
2022/09/22 04:52:52;;;;;;;67.30;49.75;;;18.20;61.70;;;;;;4959451;28;104048;-61
2022/09/22 04:55:19;;;;;;;66.88;49.70;;;18.20;61.50;;;;;;4960803;28;95632;-61
2022/09/22 04:57:49;;;;;;;67.95;49.85;;;18.20;61.60;;;;;;4962007;28;95303;-57
2022/09/22 05:00:16;;;;;;;67.10;50.25;;;18.20;61.60;;;;;;4960913;28;95004;-60
2022/09/22 05:02:41;;;;;;;68.00;50.15;;;18.30;61.30;;;;;;4957300;28;95483;-61
2022/09/22 05:05:07;;;;;;;68.35;50.13;;;18.20;61.60;;;;;;4959543;28;96643;-61
2022/09/22 05:07:33;;;;;;;69.47;50.13;;;18.30;61.90;;;;;;4964984;28;95320;-61
2022/09/22 05:09:59;;;;;;;69.78;50.45;;;18.30;61.60;;;;;;4968863;28;95680;-61
2022/09/22 05:12:27;;;;;;;68.00;50.70;;;18.40;61.60;;;;;;4964500;28;94978;-62
2022/09/22 05:14:53;;;;;;;68.05;50.85;;;18.50;61.10;;;;;;4958019;28;95230;-62
2022/09/22 05:17:19;;;;;;;68.75;50.33;;;18.30;61.20;;;;;;4966374;28;95195;-61
2022/09/22 05:19:45;;;;;;;68.07;50.33;;;18.30;61.50;;;;;;4956640;28;98643;-61
2022/09/22 05:22:11;;;;;;;74.63;50.47;;;18.30;61.40;;;;;;4959315;28;96081;-62
2022/09/22 05:24:37;;;;;;;69.38;50.45;;;18.30;61.40;;;;;;4963535;28;96231;-61
2022/09/22 05:27:03;;;;;;;68.18;50.10;;;18.30;61.40;;;;;;4965331;28;96301;-61
2022/09/22 05:29:29;;;;;;;68.45;49.97;;;18.20;61.50;;;;;;4952449;28;97471;-60
2022/09/22 05:31:55;;;;;;;68.82;50.15;;;18.40;61.50;;;;;;4957191;28;95353;-61
2022/09/22 05:34:21;;;;;;;70.18;50.30;;;18.40;61.40;;;;;;4964826;28;96545;-60
2022/09/22 05:36:46;;;;;;;67.25;50.58;;;18.30;61.70;;;;;;4956759;28;94563;-61
2022/09/22 05:39:12;;;;;;;70.47;51.08;;;18.30;61.60;;;;;;4958754;28;97005;-60
2022/09/22 05:41:38;;;;;;;68.45;50.42;;;18.20;61.40;;;;;;4949306;28;95496;-62
2022/09/22 05:44:03;;;;;;;69.93;50.75;;;18.20;62.10;;;;;;4952454;28;97218;-62
2022/09/22 05:46:29;;;;;;;68.85;50.22;;;18.20;62.30;;;;;;4950468;28;97862;-62
2022/09/22 05:48:55;;;;;;;68.20;50.40;;;18.20;62.00;;;;;;4962077;28;95590;-62
2022/09/22 05:51:20;;;;;;;69.07;50.38;;;18.10;62.00;;;;;;4954679;28;96593;-57
2022/09/22 05:53:46;;;;;;;70.60;50.42;;;18.30;61.90;;;;;;4958042;28;95152;-56
2022/09/22 05:56:12;;;;;;;71.50;51.55;;;18.40;61.60;;;;;;4943478;28;95722;-56
2022/09/22 05:58:37;;;;;;;71.13;50.50;;;18.50;61.70;;;;;;4949224;28;96731;-59
2022/09/22 06:01:03;;;;;;;72.10;51.08;;;18.60;61.60;;;;;;4962312;28;96671;-58
2022/09/22 06:03:29;;;;;;;71.03;50.67;;;18.80;61.40;;;;;;4964653;28;95418;-60
2022/09/22 06:05:54;;;;;;;73.38;51.15;;;19.00;61.00;;;;;;4952340;28;96581;-56
2022/09/22 06:08:20;;;;;;;69.90;50.33;;;19.00;60.80;;;;;;4954924;28;96866;-60
2022/09/22 06:10:48;;;;;;;71.32;50.45;;;19.00;61.00;;;;;;4967015;28;95955;-58
2022/09/22 06:13:14;;;;;;;69.88;50.35;;;18.90;61.20;;;;;;4956816;28;97269;-59
2022/09/22 06:15:43;;;;;;;71.82;50.30;;;18.90;61.20;;;;;;4960920;28;96457;-61
2022/09/22 06:18:10;;;;;;;69.57;51.03;;;18.90;61.30;;;;;;4957083;28;95230;-57
2022/09/22 06:20:37;;;;;;;74.80;50.75;;;18.80;61.30;;;;;;4961714;28;99348;-60
2022/09/22 06:23:03;;;;;;;68.47;50.60;;;18.80;61.20;;;;;;4963178;28;95553;-57
2022/09/22 06:25:29;;;;;;;69.80;50.30;;;18.70;60.80;;;;;;4960077;28;95390;-59
2022/09/22 06:28:05;;;;;;;71.53;50.95;;;18.80;60.40;;;;;;4961334;28;95571;-58
2022/09/22 06:30:32;;;;;;;68.82;50.45;;;18.80;60.60;;;;;;4957733;28;95598;-58
2022/09/22 06:32:58;;;;;;;71.18;50.63;;;18.80;60.40;;;;;;4957207;28;97363;-59
2022/09/22 06:35:24;;;;;;;70.43;50.58;;;18.80;60.40;;;;;;4967160;28;95310;-57
2022/09/22 06:37:59;;;;;;;74.65;50.55;;;18.80;60.60;;;;;;4955064;28;95777;-63
2022/09/22 06:40:25;;;;;;;69.25;50.55;;;18.80;61.00;;;;;;4962217;28;100714;-64
2022/09/22 06:43:09;;;;;;;69.93;50.60;;;18.90;61.20;;;;;;4964541;28;95714;-61
2022/09/22 06:45:35;;;;;;;73.13;50.40;;;18.90;61.30;;;;;;4966191;28;97716;-65
2022/09/22 06:48:01;;;;;;;72.57;50.60;;;18.90;61.60;;;;;;4961414;28;96535;-51
2022/09/22 06:50:31;;;;;;;69.72;50.45;;;18.80;61.50;;;;;;4956479;28;94606;-56
2022/09/22 06:53:02;;;;;;;69.43;50.85;;;18.90;61.50;;;;;;4961866;28;95694;-59
2022/09/22 06:55:29;;;;;;;71.30;49.97;;;19.00;61.00;;;;;;4963931;28;95014;-59
2022/09/22 06:57:59;;;;;;;70.18;50.45;;;18.90;60.90;;;;;;4958400;28;97478;-60
2022/09/22 07:00:31;;;;;;;70.47;50.03;;;18.90;60.90;;;;;;4958540;28;97350;-59
2022/09/22 07:03:00;;;;;;;;;;;18.80;60.90;;;;;;4962946;28;97809;-59
2022/09/22 07:05:26;;;;;;;71.07;50.35;;;18.90;61.30;;;;;;4977599;28;95005;-59
2022/09/22 07:07:52;;;;;;;70.20;50.15;;;18.90;61.30;;;;;;4953972;28;97430;-58
2022/09/22 07:10:17;;;;;;;71.80;50.75;;;18.90;61.30;;;;;;4961663;28;96379;-57
2022/09/22 07:12:43;;;;;;;70.55;50.45;;;18.90;61.30;;;;;;4962678;28;95558;-60
2022/09/22 07:15:09;;;;;;;71.50;50.83;;;19.00;61.20;;;;;;4962952;28;94965;-60
2022/09/22 07:17:35;;;;;;;70.28;51.03;;;18.90;61.90;;;;;;4958701;28;95195;-61
2022/09/22 07:20:03;;;;;;;73.25;50.50;;;19.00;61.00;;;;;;4963996;28;95871;-54
2022/09/22 07:22:29;;;;;;;71.65;50.83;;;19.00;61.00;;;;;;4964516;28;95903;-55
2022/09/22 07:24:54;;;;;;;69.57;50.58;;;19.00;60.90;;;;;;4961725;28;95386;-55
2022/09/22 07:27:24;;;;;;;71.07;50.55;;;19.00;60.90;;;;;;4964789;28;95389;-61
2022/09/22 07:29:50;;;;;;;74.05;51.17;;;19.00;60.90;;;;;;4963368;28;95460;-59
2022/09/22 07:32:16;;;;;;;74.40;50.92;;;19.10;61.00;;;;;;4960153;28;97472;-55
2022/09/22 07:34:42;;;;;;;74.95;51.42;;;19.10;61.00;;;;;;4958976;28;96436;-57
2022/09/22 07:37:10;;;;;;;72.55;51.03;;;19.10;60.90;;;;;;4952561;28;95246;-56
2022/09/22 07:39:36;;;;;;;70.88;51.08;;;19.10;60.90;;;;;;4961358;28;95917;-58
2022/09/22 07:42:02;;;;;;;71.28;50.83;;;19.20;60.90;;;;;;4965400;28;96864;-54
2022/09/22 07:47:12;;;;;;;71.55;51.42;;;19.20;60.90;;;;;;4959885;28;96848;-57
2022/09/22 07:49:38;;;;;;;71.88;51.03;;;19.10;60.90;;;;;;4962969;28;95337;-59
2022/09/22 07:52:04;;;;;;;73.45;51.47;;;19.10;60.60;;;;;;4960228;28;95848;-58
2022/09/22 07:54:32;;;;;;;72.32;50.72;;;19.10;60.60;;;;;;4963131;28;96561;-58
2022/09/22 07:56:58;;;;;;;72.75;50.92;;;19.10;60.70;;;;;;4957324;28;97006;-58
2022/09/22 07:59:24;;;;;;;70.57;50.85;;;19.10;60.70;;;;;;4961994;28;97410;-59
2022/09/22 08:01:50;;;;;;;88.60;51.35;;;19.00;60.60;;;;;;4954633;28;102166;-61
2022/09/22 08:04:21;;;;;;;75.40;51.05;;;19.10;60.90;;;;;;4960164;28;93985;-60
2022/09/22 08:06:50;;;;;;;72.95;51.40;;;19.10;61.20;;;;;;4960635;28;96167;-59
2022/09/22 08:09:17;;;;;;;73.53;51.10;;;19.20;61.30;;;;;;4965428;28;95202;-59
2022/09/22 08:11:47;;;;;;;70.82;50.22;;;19.20;61.30;;;;;;4965335;28;96159;-59
2022/09/22 08:14:13;;;;;;;73.82;51.20;;;19.20;61.30;;;;;;4960630;28;95285;-61
2022/09/22 08:16:39;;;;;;;71.47;50.83;;;19.30;61.20;;;;;;4957305;28;95699;-59
2022/09/22 08:19:11;;;;;;;73.18;51.03;;;19.30;61.20;;;;;;4967546;28;95900;-57
2022/09/22 08:21:38;;;;;;;;;;;19.40;61.20;;;;;;4967791;28;97857;-58
2022/09/22 08:24:05;;;;;;;70.25;51.10;;;19.40;61.20;;;;;;4975043;28;96988;-58
2022/09/22 08:26:31;;;;;;;68.88;50.67;;;19.40;61.20;;;;;;4962003;28;95801;-54
2022/09/22 08:28:57;;;;;;;72.18;51.25;;;19.40;61.20;;;;;;4966360;28;95223;-58
2022/09/22 08:31:25;;;;;;;71.32;50.97;;;19.50;61.10;;;;;;4960187;28;95554;-54
2022/09/22 08:33:51;;;;;;;71.65;51.28;;;19.50;61.10;;;;;;4959813;28;95045;-50
2022/09/22 08:36:17;;;;;;;73.13;51.15;;;19.50;60.80;;;;;;4958364;28;96414;-57
2022/09/22 08:38:48;;;;;;;71.57;51.08;;;19.60;60.90;;;;;;4959751;28;97191;-55
2022/09/22 08:41:25;;;;;;;70.55;51.08;;;19.70;60.70;;;;;;4966108;28;95031;-54
2022/09/22 08:44:00;;;;;;;70.90;50.97;;;19.70;60.50;;;;;;4961564;28;100103;-55
2022/09/22 08:46:37;;;;;;;71.32;51.17;;;19.70;60.60;;;;;;4947267;28;96855;-50
2022/09/22 08:52:29;;;;;;;71.45;50.95;;;19.80;60.60;;;;;;4957543;28;95134;-56
2022/09/22 08:54:59;;;;;;;70.60;50.83;;;19.80;60.50;;;;;;4960796;28;94938;-55
2022/09/22 08:57:44;;;;;;;72.90;51.05;;;19.80;60.40;;;;;;4961533;28;99741;-52
2022/09/22 09:00:14;;;;;;;73.80;51.13;;;19.90;60.40;;;;;;4960335;28;95209;-57
2022/09/22 09:02:44;;;;;;;72.23;51.10;;;19.90;60.20;;;;;;4958126;28;96951;-58
2022/09/22 09:05:19;;;;;;;73.18;51.42;;;20.00;60.20;;;;;;4963019;28;94769;-56
2022/09/22 09:07:59;;;;;;;69.85;50.70;;;20.00;60.20;;;;;;4958245;28;96407;-56
2022/09/22 09:10:52;;;;;;;72.35;51.15;;;20.00;60.20;;;;;;4972145;28;96180;-54
2022/09/22 09:13:37;;;;;;;71.22;50.88;;;20.10;60.10;;;;;;4962579;28;96293;-55
2022/09/22 09:16:32;;;;;;;70.70;50.88;;;20.00;60.00;;;;;;4955059;28;96292;-55
2022/09/22 09:19:18;;;;;;;70.13;50.67;;;19.90;60.00;;;;;;4966046;28;96464;-53
2022/09/22 09:21:52;;;;;;;71.60;50.72;;;19.90;60.00;;;;;;4957254;28;94321;-56
2022/09/22 09:24:38;;;;;;;71.15;51.80;;;19.90;60.00;;;;;;4959026;28;97246;-54
2022/09/22 09:27:25;;;;;;;69.80;50.97;;;20.00;60.00;;;;;;4951244;28;98169;-53
2022/09/22 09:30:20;;;;;;;71.07;50.90;;;20.00;59.90;;;;;;4950031;28;97164;-54
2022/09/22 09:32:59;;;;;;;69.97;51.03;;;20.00;60.00;;;;;;4951185;28;100465;-51
2022/09/22 09:35:43;;;;;;;71.85;51.00;;;20.20;59.90;;;;;;4955697;28;95736;-51
2022/09/22 09:38:26;;;;;;;71.13;51.20;;;20.20;59.80;;;;;;4964687;28;97216;-54
2022/09/22 09:41:13;;;;;;;72.43;51.35;;;20.10;59.80;;;;;;4955288;28;96159;-55
2022/09/22 09:43:41;;;;;;;70.03;50.45;;;20.10;59.70;;;;;;4957791;28;95937;-51
2022/09/22 09:46:27;;;;;;;69.93;50.72;;;20.10;59.50;;;;;;4964071;28;95823;-55
2022/09/22 09:49:10;;;;;;;72.10;50.90;;;20.20;59.80;;;;;;4960153;28;94717;-55
2022/09/22 09:51:41;;;;;;;71.32;50.85;;;20.30;59.80;;;;;;4953201;28;97335;-56
2022/09/22 09:54:08;;;;;;;70.43;51.00;;;20.30;59.60;;;;;;4955922;28;95447;-55
2022/09/22 09:56:37;;;;;;;71.43;51.03;;;20.40;59.60;;;;;;4953767;28;102578;-57
2022/09/22 10:01:52;;;;;;;72.25;50.75;;;20.50;59.70;;;;;;4964368;28;95055;-53
2022/09/22 10:04:24;;;;;;;71.45;51.28;;;20.50;59.60;;;;;;4958093;28;95610;-55
2022/09/22 10:06:50;;;;;;;70.57;50.95;;;20.60;59.60;;;;;;4960569;28;95192;-54
2022/09/22 10:09:28;;;;;;;71.45;51.60;;;20.60;59.70;;;;;;4967988;28;95386;-56
2022/09/22 10:11:58;;;;;;;72.97;51.25;;;20.60;59.70;;;;;;4957874;28;96626;-55
2022/09/22 10:14:28;;;;;;;72.20;50.88;;;20.60;59.70;;;;;;4963379;28;94553;-55
2022/09/22 10:16:53;;;;;;;71.10;50.88;;;20.60;59.70;;;;;;4958736;28;95341;-54
2022/09/22 10:19:27;;;;;;;71.13;51.25;;;20.60;59.60;;;;;;4957171;28;95857;-58
2022/09/22 10:22:24;;;;;;;73.07;51.20;;;20.50;59.40;;;;;;4958598;28;97352;-59
2022/09/22 10:24:59;;;;;;;73.65;50.97;;;20.50;59.40;;;;;;4953965;28;95986;-57
2022/09/22 10:27:26;;;;;;;70.45;51.10;;;20.50;59.60;;;;;;4953552;28;95619;-59
2022/09/22 10:30:10;;;;;;;72.97;51.15;;;20.60;59.70;;;;;;4965627;28;95492;-58
2022/09/22 10:32:36;;;;;;;72.93;51.58;;;20.60;59.90;;;;;;4963746;28;95999;-58
2022/09/22 10:35:28;;;;;;;76.55;51.33;;;20.60;59.60;;;;;;4965771;28;96383;-55
2022/09/22 10:38:16;;;;;;;73.07;51.35;;;20.60;59.60;;;;;;4961077;28;96053;-51
2022/09/22 10:40:46;;;;;;;73.78;51.22;;;20.70;59.70;;;;;;4968867;28;95150;-53
2022/09/22 10:43:23;;;;;;;71.47;51.25;;;20.70;59.80;;;;;;4959959;28;94971;-54
2022/09/22 10:46:11;;;;;;;70.78;51.15;;;20.80;59.90;;;;;;4961840;28;95542;-53
2022/09/22 10:48:48;;;;;;;70.65;51.10;;;20.80;59.90;;;;;;4959958;28;96403;-53
2022/09/22 10:51:27;;;;;;;71.88;51.40;;;20.80;60.00;;;;;;4959111;28;100047;-50
2022/09/22 10:54:09;;;;;;;72.82;51.33;;;20.90;60.10;;;;;;4959583;28;96275;-55
2022/09/22 10:56:37;;;;;;;71.38;51.10;;;20.90;60.10;;;;;;4962376;28;96018;-50
2022/09/22 10:59:25;;;;;;;72.32;51.13;;;20.90;60.10;;;;;;4968092;28;95315;-49
2022/09/22 11:02:17;;;;;;;71.55;51.53;;;20.90;60.10;;;;;;4960446;28;95288;-53
2022/09/22 11:05:15;;;;;;;70.85;51.13;;;20.90;60.30;;;;;;4969326;28;95851;-52
2022/09/22 11:13:34;;;;;;;73.15;51.28;;;21.00;60.50;;;;;;4957838;28;96506;-55
2022/09/22 11:16:27;;;;;;;72.47;51.17;;;21.00;60.40;;;;;;4966372;28;97143;-53
2022/09/22 11:19:27;;;;;;;74.68;51.35;;;21.10;60.00;;;;;;4958470;28;99674;-54
2022/09/22 11:22:35;;;;;;;71.15;51.15;;;21.00;59.80;;;;;;4959397;28;98501;-54
2022/09/22 11:25:20;;;;;;;71.47;51.25;;;21.00;59.70;;;;;;4952824;28;95077;-50
2022/09/22 11:28:13;;;;;;;74.30;51.63;;;21.10;59.70;;;;;;4957165;28;95504;-53
2022/09/22 11:30:52;;;;;;;71.80;51.53;;;21.10;59.50;;;;;;4960820;28;95681;-53
2022/09/22 11:33:30;;;;;;;71.13;51.05;;;21.20;59.50;;;;;;4957231;28;96172;-53
2022/09/22 11:36:19;;;;;;;73.93;51.15;;;21.20;59.50;;;;;;4951342;28;94548;-51
2022/09/22 11:39:18;;;;;;;71.18;51.20;;;21.20;59.50;;;;;;4956663;28;96596;-51
2022/09/22 11:41:47;;;;;;;71.10;51.33;;;21.20;59.30;;;;;;4951668;28;95160;-51
2022/09/22 11:44:35;;;;;;;72.80;51.55;;;21.30;59.40;;;;;;4957531;28;96721;-54
2022/09/22 11:47:16;;;;;;;72.03;51.50;;;21.30;59.20;;;;;;4966240;28;95344;-53
2022/09/22 11:50:19;;;;;;;74.22;51.58;;;21.40;59.10;;;;;;4963660;28;96054;-53
2022/09/22 11:53:07;;;;;;;71.40;51.25;;;21.40;59.10;;;;;;4959656;28;96530;-50
2022/09/22 11:55:51;;;;;;;72.30;51.70;;;21.40;59.10;;;;;;4957219;28;97531;-54
2022/09/22 11:58:24;;;;;;;71.03;51.35;;;21.40;58.60;;;;;;4953539;28;96127;-56
2022/09/22 12:00:55;;;;;;;74.25;51.50;;;21.40;58.50;;;;;;4966969;28;95365;-53
2022/09/22 12:03:34;;;;;;;71.28;51.20;;;21.40;58.60;;;;;;4964135;28;95025;-49
2022/09/22 12:06:05;;;;;;;74.18;51.40;;;21.50;58.80;;;;;;4959789;28;95132;-51
2022/09/22 12:08:36;;;;;;;73.10;51.25;;;21.50;58.80;;;;;;4961208;28;95386;-53
2022/09/22 12:11:05;;;;;;;73.97;51.65;;;21.50;58.80;;;;;;4959717;28;96521;-55
2022/09/22 12:13:32;;;;;;;72.53;51.45;;;21.60;58.80;;;;;;4963503;28;95561;-54
2022/09/22 12:16:11;;;;;;;71.93;51.65;;;21.60;59.00;;;;;;4965502;28;96140;-52
2022/09/22 12:18:42;;;;;;;73.30;51.58;;;21.60;58.90;;;;;;4975745;28;96444;-49
2022/09/22 12:21:26;;;;;;;;;;;21.70;58.80;;;;;;4961314;28;96502;-57
2022/09/22 12:23:52;;;;;;;72.15;51.50;;;21.70;59.00;;;;;;4957118;28;96286;-53
2022/09/22 12:26:26;;;;;;;72.07;51.20;;;21.70;58.80;;;;;;4962168;28;94809;-58
2022/09/22 12:28:52;;;;;;;72.97;51.78;;;21.70;58.00;;;;;;4961783;28;94957;-52
2022/09/22 12:31:19;;;;;;;73.40;52.05;;;21.80;57.60;;;;;;4955368;28;95005;-51
2022/09/22 12:33:51;;;;;;;72.03;51.28;;;21.80;57.20;;;;;;4962594;28;95886;-52
2022/09/22 12:36:29;;;;;;;73.35;51.42;;;21.80;56.80;;;;;;4960504;28;96113;-50
2022/09/22 12:39:19;;;;;;;73.78;51.70;;;21.80;56.70;;;;;;4965699;28;95367;-54
2022/09/22 12:42:04;;;;;;;71.88;51.30;;;21.80;55.80;;;;;;4963023;28;96109;-55
2022/09/22 12:44:57;;;;;;;72.43;51.45;;;21.80;56.00;;;;;;4960829;28;98024;-54
2022/09/22 12:47:38;;;;;;;73.93;51.85;;;21.80;55.90;;;;;;4925465;28;98118;-54
2022/09/22 12:50:32;;;;;;;72.60;51.80;;;21.80;55.40;;;;;;4927321;28;96475;-51
2022/09/22 12:53:02;;;;;;;72.93;51.95;;;21.80;55.30;;;;;;4930400;28;96808;-51
2022/09/22 12:55:39;;;;;;;72.10;51.28;;;21.80;55.30;;;;;;4938924;28;97307;-51
2022/09/22 12:58:31;;;;;;;72.22;51.55;;;21.80;55.10;;;;;;4954795;28;98087;-54
2022/09/22 13:01:31;;;;;;;74.18;51.45;;;21.80;54.70;;;;;;4963341;28;96450;-50
2022/09/22 13:04:14;;;;;;;73.57;51.45;;;21.80;54.30;;;;;;4968507;28;96452;-54
2022/09/22 13:06:40;;;;;;;72.10;51.35;;;21.90;54.00;;;;;;4960726;28;96216;-53
2022/09/22 13:09:07;;;;;;;72.68;51.75;;;21.80;52.90;;;;;;4955819;28;95091;-53